sensor_id;sensor_type;location;lat;lon;timestamp;pressure;altitude;pressure_sealevel;temperature
49841;BMP280;35738;49.890;5.930;2023-08-17T00:01:01;96129.06;;;24.85
49841;BMP280;35738;49.890;5.930;2023-08-17T00:03:27;96128.19;;;25.26
49841;BMP280;35738;49.890;5.930;2023-08-17T00:05:54;96135.91;;;25.08
49841;BMP280;35738;49.890;5.930;2023-08-17T00:08:21;96138.16;;;25.15
49841;BMP280;35738;49.890;5.930;2023-08-17T00:10:47;96135.66;;;25.47
49841;BMP280;35738;49.890;5.930;2023-08-17T00:13:14;96141.09;;;25.22
49841;BMP280;35738;49.890;5.930;2023-08-17T00:15:40;96141.78;;;24.98
49841;BMP280;35738;49.890;5.930;2023-08-17T00:18:07;96139.91;;;25.52
49841;BMP280;35738;49.890;5.930;2023-08-17T00:20:34;96141.41;;;25.08
49841;BMP280;35738;49.890;5.930;2023-08-17T00:23:00;96139.94;;;24.81
49841;BMP280;35738;49.890;5.930;2023-08-17T00:25:27;96140.03;;;24.85
49841;BMP280;35738;49.890;5.930;2023-08-17T00:27:53;96134.59;;;24.42
49841;BMP280;35738;49.890;5.930;2023-08-17T00:30:20;96144.47;;;24.30
49841;BMP280;35738;49.890;5.930;2023-08-17T00:32:47;96137.44;;;24.68
49841;BMP280;35738;49.890;5.930;2023-08-17T00:35:13;96134.88;;;24.50
49841;BMP280;35738;49.890;5.930;2023-08-17T00:37:40;96126.22;;;24.81
49841;BMP280;35738;49.890;5.930;2023-08-17T00:40:06;96128.97;;;25.05
49841;BMP280;35738;49.890;5.930;2023-08-17T00:42:33;96132.09;;;24.72
49841;BMP280;35738;49.890;5.930;2023-08-17T00:45:00;96130.22;;;25.02
49841;BMP280;35738;49.890;5.930;2023-08-17T00:47:26;96132.97;;;25.26
49841;BMP280;35738;49.890;5.930;2023-08-17T00:49:53;96122.25;;;24.86
49841;BMP280;35738;49.890;5.930;2023-08-17T00:52:20;96131.41;;;25.18
49841;BMP280;35738;49.890;5.930;2023-08-17T00:54:46;96128.41;;;25.08
49841;BMP280;35738;49.890;5.930;2023-08-17T00:57:13;96130.19;;;25.24
49841;BMP280;35738;49.890;5.930;2023-08-17T00:59:39;96121.59;;;25.35
49841;BMP280;35738;49.890;5.930;2023-08-17T01:02:10;96127.44;;;25.24
49841;BMP280;35738;49.890;5.930;2023-08-17T01:04:36;96116.41;;;25.22
49841;BMP280;35738;49.890;5.930;2023-08-17T01:07:03;96113.97;;;25.08
49841;BMP280;35738;49.890;5.930;2023-08-17T01:09:29;96112.16;;;24.93
49841;BMP280;35738;49.890;5.930;2023-08-17T01:12:19;96118.38;;;25.19
49841;BMP280;35738;49.890;5.930;2023-08-17T01:14:56;96110.28;;;24.76
49841;BMP280;35738;49.890;5.930;2023-08-17T01:17:29;96109.31;;;24.44
49841;BMP280;35738;49.890;5.930;2023-08-17T01:19:57;96103.97;;;24.48
49841;BMP280;35738;49.890;5.930;2023-08-17T01:22:26;96101.81;;;24.44
49841;BMP280;35738;49.890;5.930;2023-08-17T01:24:56;96099.63;;;24.86
49841;BMP280;35738;49.890;5.930;2023-08-17T01:27:24;96107.59;;;24.54
49841;BMP280;35738;49.890;5.930;2023-08-17T01:29:51;96108.97;;;24.77
49841;BMP280;35738;49.890;5.930;2023-08-17T01:32:39;96106.81;;;24.73
49841;BMP280;35738;49.890;5.930;2023-08-17T01:35:28;96111.84;;;24.81
49841;BMP280;35738;49.890;5.930;2023-08-17T01:37:59;96113.28;;;24.60
49841;BMP280;35738;49.890;5.930;2023-08-17T01:40:27;96121.38;;;24.80
49841;BMP280;35738;49.890;5.930;2023-08-17T01:42:55;96116.50;;;25.00
49841;BMP280;35738;49.890;5.930;2023-08-17T01:45:22;96125.13;;;25.14
49841;BMP280;35738;49.890;5.930;2023-08-17T01:47:49;96122.44;;;25.42
49841;BMP280;35738;49.890;5.930;2023-08-17T01:50:15;96120.84;;;25.58
49841;BMP280;35738;49.890;5.930;2023-08-17T01:52:42;96123.59;;;25.09
49841;BMP280;35738;49.890;5.930;2023-08-17T01:55:09;96126.00;;;25.46
49841;BMP280;35738;49.890;5.930;2023-08-17T01:57:35;96116.59;;;25.53
49841;BMP280;35738;49.890;5.930;2023-08-17T02:00:04;96111.00;;;25.24
49841;BMP280;35738;49.890;5.930;2023-08-17T02:02:31;96109.31;;;25.38
49841;BMP280;35738;49.890;5.930;2023-08-17T02:04:58;96109.28;;;25.12
49841;BMP280;35738;49.890;5.930;2023-08-17T02:07:24;96099.50;;;25.05
49841;BMP280;35738;49.890;5.930;2023-08-17T02:09:51;96096.63;;;25.25
49841;BMP280;35738;49.890;5.930;2023-08-17T02:12:18;96091.94;;;25.30
49841;BMP280;35738;49.890;5.930;2023-08-17T02:14:44;96088.50;;;25.29
49841;BMP280;35738;49.890;5.930;2023-08-17T02:17:11;96100.19;;;25.06
49841;BMP280;35738;49.890;5.930;2023-08-17T02:19:37;96093.09;;;24.97
49841;BMP280;35738;49.890;5.930;2023-08-17T02:22:04;96095.56;;;24.87
49841;BMP280;35738;49.890;5.930;2023-08-17T02:24:31;96092.44;;;25.22
49841;BMP280;35738;49.890;5.930;2023-08-17T02:26:57;96092.81;;;25.36
49841;BMP280;35738;49.890;5.930;2023-08-17T02:29:24;96087.66;;;24.99
49841;BMP280;35738;49.890;5.930;2023-08-17T02:31:50;96083.34;;;24.68
49841;BMP280;35738;49.890;5.930;2023-08-17T02:34:17;96092.22;;;24.67
49841;BMP280;35738;49.890;5.930;2023-08-17T02:36:43;96086.75;;;24.67
49841;BMP280;35738;49.890;5.930;2023-08-17T02:39:10;96088.66;;;24.86
49841;BMP280;35738;49.890;5.930;2023-08-17T02:41:36;96085.47;;;24.70
49841;BMP280;35738;49.890;5.930;2023-08-17T02:44:03;96075.38;;;25.00
49841;BMP280;35738;49.890;5.930;2023-08-17T02:46:30;96077.66;;;24.84
49841;BMP280;35738;49.890;5.930;2023-08-17T02:48:56;96076.22;;;24.81
49841;BMP280;35738;49.890;5.930;2023-08-17T02:51:23;96073.88;;;25.21
49841;BMP280;35738;49.890;5.930;2023-08-17T02:53:49;96083.50;;;25.47
49841;BMP280;35738;49.890;5.930;2023-08-17T02:56:16;96084.25;;;26.34
49841;BMP280;35738;49.890;5.930;2023-08-17T02:58:42;96084.53;;;26.78
49841;BMP280;35738;49.890;5.930;2023-08-17T03:01:09;96079.91;;;26.87
49841;BMP280;35738;49.890;5.930;2023-08-17T03:03:36;96086.09;;;26.87
49841;BMP280;35738;49.890;5.930;2023-08-17T03:06:03;96093.09;;;26.01
49841;BMP280;35738;49.890;5.930;2023-08-17T03:08:30;96087.56;;;25.72
49841;BMP280;35738;49.890;5.930;2023-08-17T03:10:57;96083.00;;;25.55
49841;BMP280;35738;49.890;5.930;2023-08-17T03:13:23;96084.91;;;24.99
49841;BMP280;35738;49.890;5.930;2023-08-17T03:15:50;96081.66;;;25.04
49841;BMP280;35738;49.890;5.930;2023-08-17T03:18:16;96080.78;;;24.51
49841;BMP280;35738;49.890;5.930;2023-08-17T03:20:44;96083.84;;;24.39
49841;BMP280;35738;49.890;5.930;2023-08-17T03:23:12;96082.16;;;24.52
49841;BMP280;35738;49.890;5.930;2023-08-17T03:25:38;96087.22;;;24.38
49841;BMP280;35738;49.890;5.930;2023-08-17T03:28:05;96098.50;;;24.71
49841;BMP280;35738;49.890;5.930;2023-08-17T03:30:31;96105.38;;;24.94
49841;BMP280;35738;49.890;5.930;2023-08-17T03:32:58;96095.69;;;24.67
49841;BMP280;35738;49.890;5.930;2023-08-17T03:35:24;96091.97;;;24.82
49841;BMP280;35738;49.890;5.930;2023-08-17T03:37:51;96091.28;;;24.82
49841;BMP280;35738;49.890;5.930;2023-08-17T03:40:17;96093.50;;;24.64
49841;BMP280;35738;49.890;5.930;2023-08-17T03:42:44;96092.31;;;25.18
49841;BMP280;35738;49.890;5.930;2023-08-17T03:45:10;96095.06;;;25.18
49841;BMP280;35738;49.890;5.930;2023-08-17T03:47:37;96094.28;;;24.90
49841;BMP280;35738;49.890;5.930;2023-08-17T03:50:04;96088.06;;;24.89
49841;BMP280;35738;49.890;5.930;2023-08-17T03:52:31;96088.50;;;24.80
49841;BMP280;35738;49.890;5.930;2023-08-17T03:54:57;96084.34;;;25.02
49841;BMP280;35738;49.890;5.930;2023-08-17T03:57:23;96082.94;;;25.01
49841;BMP280;35738;49.890;5.930;2023-08-17T03:59:50;96084.69;;;25.14
49841;BMP280;35738;49.890;5.930;2023-08-17T04:02:17;96083.34;;;24.68
49841;BMP280;35738;49.890;5.930;2023-08-17T04:04:43;96094.22;;;24.88
49841;BMP280;35738;49.890;5.930;2023-08-17T04:07:10;96088.22;;;25.19
49841;BMP280;35738;49.890;5.930;2023-08-17T04:09:36;96095.69;;;24.91
49841;BMP280;35738;49.890;5.930;2023-08-17T04:12:04;96099.41;;;25.01
49841;BMP280;35738;49.890;5.930;2023-08-17T04:14:32;96092.25;;;25.16
49841;BMP280;35738;49.890;5.930;2023-08-17T04:16:58;96090.09;;;25.12
49841;BMP280;35738;49.890;5.930;2023-08-17T04:19:25;96090.09;;;24.89
49841;BMP280;35738;49.890;5.930;2023-08-17T04:21:51;96100.56;;;25.44
49841;BMP280;35738;49.890;5.930;2023-08-17T04:24:18;96098.56;;;25.46
49841;BMP280;35738;49.890;5.930;2023-08-17T04:26:44;96094.09;;;25.59
49841;BMP280;35738;49.890;5.930;2023-08-17T04:29:11;96091.75;;;25.47
49841;BMP280;35738;49.890;5.930;2023-08-17T04:31:38;96091.56;;;24.68
49841;BMP280;35738;49.890;5.930;2023-08-17T04:34:05;96082.59;;;24.21
49841;BMP280;35738;49.890;5.930;2023-08-17T04:36:31;96079.69;;;24.38
49841;BMP280;35738;49.890;5.930;2023-08-17T04:38:58;96087.53;;;24.48
49841;BMP280;35738;49.890;5.930;2023-08-17T04:41:25;96087.53;;;24.71
49841;BMP280;35738;49.890;5.930;2023-08-17T04:43:51;96093.31;;;25.29
49841;BMP280;35738;49.890;5.930;2023-08-17T04:46:18;96093.06;;;25.46
49841;BMP280;35738;49.890;5.930;2023-08-17T04:48:44;96100.94;;;24.85
49841;BMP280;35738;49.890;5.930;2023-08-17T04:51:11;96110.75;;;25.15
49841;BMP280;35738;49.890;5.930;2023-08-17T04:53:40;96104.19;;;25.78
49841;BMP280;35738;49.890;5.930;2023-08-17T04:56:06;96109.91;;;26.15
49841;BMP280;35738;49.890;5.930;2023-08-17T04:58:33;96098.88;;;25.58
49841;BMP280;35738;49.890;5.930;2023-08-17T05:01:00;96104.53;;;25.13
49841;BMP280;35738;49.890;5.930;2023-08-17T05:03:26;96108.44;;;24.82
49841;BMP280;35738;49.890;5.930;2023-08-17T05:05:59;96106.09;;;24.73
49841;BMP280;35738;49.890;5.930;2023-08-17T05:08:26;96107.53;;;24.31
49841;BMP280;35738;49.890;5.930;2023-08-17T05:10:52;96111.75;;;24.79
49841;BMP280;35738;49.890;5.930;2023-08-17T05:13:19;96122.25;;;24.41
49841;BMP280;35738;49.890;5.930;2023-08-17T05:15:45;96119.09;;;24.96
49841;BMP280;35738;49.890;5.930;2023-08-17T05:18:12;96118.00;;;25.05
49841;BMP280;35738;49.890;5.930;2023-08-17T05:20:38;96113.78;;;24.78
49841;BMP280;35738;49.890;5.930;2023-08-17T05:23:05;96109.41;;;25.42
49841;BMP280;35738;49.890;5.930;2023-08-17T05:25:31;96114.84;;;25.66
49841;BMP280;35738;49.890;5.930;2023-08-17T05:27:58;96125.81;;;25.66
49841;BMP280;35738;49.890;5.930;2023-08-17T05:30:24;96122.91;;;25.85
49841;BMP280;35738;49.890;5.930;2023-08-17T05:32:51;96124.91;;;25.83
49841;BMP280;35738;49.890;5.930;2023-08-17T05:35:17;96114.50;;;25.79
49841;BMP280;35738;49.890;5.930;2023-08-17T05:37:44;96124.00;;;25.23
49841;BMP280;35738;49.890;5.930;2023-08-17T05:40:11;96131.94;;;25.13
49841;BMP280;35738;49.890;5.930;2023-08-17T05:42:37;96127.91;;;25.65
49841;BMP280;35738;49.890;5.930;2023-08-17T05:45:04;96126.81;;;25.76
49841;BMP280;35738;49.890;5.930;2023-08-17T05:47:31;96134.81;;;25.43
49841;BMP280;35738;49.890;5.930;2023-08-17T05:49:57;96136.06;;;24.67
49841;BMP280;35738;49.890;5.930;2023-08-17T05:52:24;96135.38;;;24.90
49841;BMP280;35738;49.890;5.930;2023-08-17T05:54:50;96141.44;;;25.34
49841;BMP280;35738;49.890;5.930;2023-08-17T05:57:17;96135.50;;;25.17
49841;BMP280;35738;49.890;5.930;2023-08-17T05:59:43;96134.59;;;25.35
49841;BMP280;35738;49.890;5.930;2023-08-17T06:02:10;96135.38;;;25.13
49841;BMP280;35738;49.890;5.930;2023-08-17T06:04:36;96142.38;;;25.18
49841;BMP280;35738;49.890;5.930;2023-08-17T06:07:03;96139.41;;;24.87
49841;BMP280;35738;49.890;5.930;2023-08-17T06:09:30;96143.63;;;25.39
49841;BMP280;35738;49.890;5.930;2023-08-17T06:11:56;96136.69;;;25.10
49841;BMP280;35738;49.890;5.930;2023-08-17T06:14:23;96140.91;;;25.65
49841;BMP280;35738;49.890;5.930;2023-08-17T06:16:50;96147.78;;;25.66
49841;BMP280;35738;49.890;5.930;2023-08-17T06:19:16;96158.41;;;25.52
49841;BMP280;35738;49.890;5.930;2023-08-17T06:21:43;96147.31;;;25.48
49841;BMP280;35738;49.890;5.930;2023-08-17T06:24:09;96157.91;;;24.86
49841;BMP280;35738;49.890;5.930;2023-08-17T06:26:35;96151.28;;;24.07
49841;BMP280;35738;49.890;5.930;2023-08-17T06:29:02;96159.59;;;24.31
49841;BMP280;35738;49.890;5.930;2023-08-17T06:31:29;96164.91;;;23.85
49841;BMP280;35738;49.890;5.930;2023-08-17T06:33:56;96158.44;;;24.38
49841;BMP280;35738;49.890;5.930;2023-08-17T06:36:23;96158.63;;;24.22
49841;BMP280;35738;49.890;5.930;2023-08-17T06:38:49;96155.94;;;24.24
49841;BMP280;35738;49.890;5.930;2023-08-17T06:41:16;96153.88;;;24.68
49841;BMP280;35738;49.890;5.930;2023-08-17T06:43:43;96163.16;;;24.16
49841;BMP280;35738;49.890;5.930;2023-08-17T06:46:10;96164.84;;;23.27
49841;BMP280;35738;49.890;5.930;2023-08-17T06:48:36;96172.53;;;23.50
49841;BMP280;35738;49.890;5.930;2023-08-17T06:51:03;96165.59;;;23.47
49841;BMP280;35738;49.890;5.930;2023-08-17T06:53:31;96165.22;;;23.54
49841;BMP280;35738;49.890;5.930;2023-08-17T06:55:57;96169.97;;;24.34
49841;BMP280;35738;49.890;5.930;2023-08-17T06:58:28;96170.97;;;24.23
49841;BMP280;35738;49.890;5.930;2023-08-17T07:00:54;96165.47;;;24.02
49841;BMP280;35738;49.890;5.930;2023-08-17T07:03:21;96167.34;;;24.38
49841;BMP280;35738;49.890;5.930;2023-08-17T07:05:47;96168.16;;;23.06
49841;BMP280;35738;49.890;5.930;2023-08-17T07:08:14;96162.22;;;24.07
49841;BMP280;35738;49.890;5.930;2023-08-17T07:10:41;96152.06;;;24.31
49841;BMP280;35738;49.890;5.930;2023-08-17T07:13:07;96154.88;;;24.78
49841;BMP280;35738;49.890;5.930;2023-08-17T07:15:34;96148.56;;;24.29
49841;BMP280;35738;49.890;5.930;2023-08-17T07:18:00;96152.13;;;24.33
49841;BMP280;35738;49.890;5.930;2023-08-17T07:20:27;96147.63;;;24.63
49841;BMP280;35738;49.890;5.930;2023-08-17T07:22:53;96146.06;;;24.15
49841;BMP280;35738;49.890;5.930;2023-08-17T07:25:20;96143.69;;;23.27
49841;BMP280;35738;49.890;5.930;2023-08-17T07:27:46;96135.66;;;24.55
49841;BMP280;35738;49.890;5.930;2023-08-17T07:30:13;96132.78;;;23.66
49841;BMP280;35738;49.890;5.930;2023-08-17T07:32:39;96142.19;;;24.22
49841;BMP280;35738;49.890;5.930;2023-08-17T07:35:06;96130.81;;;24.98
49841;BMP280;35738;49.890;5.930;2023-08-17T07:37:33;96147.56;;;24.40
49841;BMP280;35738;49.890;5.930;2023-08-17T07:40:00;96141.59;;;25.14
49841;BMP280;35738;49.890;5.930;2023-08-17T07:42:30;96135.97;;;25.10
49841;BMP280;35738;49.890;5.930;2023-08-17T07:44:56;96132.81;;;24.96
49841;BMP280;35738;49.890;5.930;2023-08-17T07:47:23;96130.06;;;24.96
49841;BMP280;35738;49.890;5.930;2023-08-17T07:49:50;96123.66;;;25.11
49841;BMP280;35738;49.890;5.930;2023-08-17T07:52:16;96115.78;;;24.99
49841;BMP280;35738;49.890;5.930;2023-08-17T07:54:43;96120.91;;;25.60
49841;BMP280;35738;49.890;5.930;2023-08-17T07:57:09;96121.09;;;25.43
49841;BMP280;35738;49.890;5.930;2023-08-17T07:59:36;96121.53;;;25.07
49841;BMP280;35738;49.890;5.930;2023-08-17T08:02:02;96114.06;;;25.12
49841;BMP280;35738;49.890;5.930;2023-08-17T08:04:29;96112.53;;;25.05
49841;BMP280;35738;49.890;5.930;2023-08-17T08:06:55;96107.34;;;25.41
49841;BMP280;35738;49.890;5.930;2023-08-17T08:09:22;96108.22;;;25.47
49841;BMP280;35738;49.890;5.930;2023-08-17T08:11:48;96105.66;;;25.55
49841;BMP280;35738;49.890;5.930;2023-08-17T08:14:15;96114.91;;;25.42
49841;BMP280;35738;49.890;5.930;2023-08-17T08:16:50;96125.94;;;25.70
49841;BMP280;35738;49.890;5.930;2023-08-17T08:19:17;96125.06;;;26.16
49841;BMP280;35738;49.890;5.930;2023-08-17T08:21:43;96132.28;;;26.31
49841;BMP280;35738;49.890;5.930;2023-08-17T08:24:10;96126.59;;;25.68
49841;BMP280;35738;49.890;5.930;2023-08-17T08:26:56;96131.78;;;24.62
49841;BMP280;35738;49.890;5.930;2023-08-17T08:29:22;96127.50;;;25.51
49841;BMP280;35738;49.890;5.930;2023-08-17T08:31:49;96135.31;;;25.11
49841;BMP280;35738;49.890;5.930;2023-08-17T08:34:15;96134.31;;;25.25
49841;BMP280;35738;49.890;5.930;2023-08-17T08:36:42;96126.75;;;24.76
49841;BMP280;35738;49.890;5.930;2023-08-17T08:39:08;96117.72;;;24.95
49841;BMP280;35738;49.890;5.930;2023-08-17T08:41:35;96114.66;;;25.58
49841;BMP280;35738;49.890;5.930;2023-08-17T08:44:02;96112.94;;;26.27
49841;BMP280;35738;49.890;5.930;2023-08-17T08:46:30;96121.28;;;26.61
49841;BMP280;35738;49.890;5.930;2023-08-17T08:48:57;96127.03;;;25.59
49841;BMP280;35738;49.890;5.930;2023-08-17T08:51:27;96122.50;;;25.69
49841;BMP280;35738;49.890;5.930;2023-08-17T08:54:01;96115.81;;;26.63
49841;BMP280;35738;49.890;5.930;2023-08-17T08:56:35;96125.34;;;24.98
49841;BMP280;35738;49.890;5.930;2023-08-17T08:59:02;96123.06;;;25.91
49841;BMP280;35738;49.890;5.930;2023-08-17T09:01:30;96120.06;;;26.38
49841;BMP280;35738;49.890;5.930;2023-08-17T09:04:01;96126.16;;;25.78
49841;BMP280;35738;49.890;5.930;2023-08-17T09:06:29;96135.19;;;25.82
49841;BMP280;35738;49.890;5.930;2023-08-17T09:09:01;96132.53;;;25.59
49841;BMP280;35738;49.890;5.930;2023-08-17T09:11:28;96138.75;;;25.61
49841;BMP280;35738;49.890;5.930;2023-08-17T09:13:54;96146.47;;;27.15
49841;BMP280;35738;49.890;5.930;2023-08-17T09:16:21;96147.09;;;27.47
49841;BMP280;35738;49.890;5.930;2023-08-17T09:18:53;96140.22;;;27.48
49841;BMP280;35738;49.890;5.930;2023-08-17T09:21:23;96143.41;;;27.72
49841;BMP280;35738;49.890;5.930;2023-08-17T09:23:54;96139.19;;;27.29
49841;BMP280;35738;49.890;5.930;2023-08-17T09:26:31;96140.50;;;26.61
49841;BMP280;35738;49.890;5.930;2023-08-17T09:29:16;96137.72;;;27.24
49841;BMP280;35738;49.890;5.930;2023-08-17T09:31:43;96134.97;;;28.45
49841;BMP280;35738;49.890;5.930;2023-08-17T09:34:09;96128.97;;;28.13
49841;BMP280;35738;49.890;5.930;2023-08-17T09:36:36;96136.22;;;27.53
49841;BMP280;35738;49.890;5.930;2023-08-17T09:39:03;96140.81;;;27.80
49841;BMP280;35738;49.890;5.930;2023-08-17T09:41:29;96144.91;;;27.41
49841;BMP280;35738;49.890;5.930;2023-08-17T09:43:56;96145.22;;;27.95
49841;BMP280;35738;49.890;5.930;2023-08-17T09:46:22;96147.25;;;27.55
49841;BMP280;35738;49.890;5.930;2023-08-17T09:48:50;96145.59;;;28.19
49841;BMP280;35738;49.890;5.930;2023-08-17T09:51:17;96144.59;;;28.96
49841;BMP280;35738;49.890;5.930;2023-08-17T09:53:43;96151.81;;;28.69
49841;BMP280;35738;49.890;5.930;2023-08-17T09:56:11;96155.78;;;27.33
49841;BMP280;35738;49.890;5.930;2023-08-17T09:58:41;96157.75;;;27.66
49841;BMP280;35738;49.890;5.930;2023-08-17T10:01:08;96161.66;;;27.91
49841;BMP280;35738;49.890;5.930;2023-08-17T10:03:37;96157.06;;;28.49
49841;BMP280;35738;49.890;5.930;2023-08-17T10:06:06;96155.91;;;29.86
49841;BMP280;35738;49.890;5.930;2023-08-17T10:08:42;96157.25;;;28.63
49841;BMP280;35738;49.890;5.930;2023-08-17T10:11:10;96165.66;;;28.71
49841;BMP280;35738;49.890;5.930;2023-08-17T10:13:42;96159.91;;;29.71
49841;BMP280;35738;49.890;5.930;2023-08-17T10:16:36;96161.63;;;28.80
49841;BMP280;35738;49.890;5.930;2023-08-17T10:19:15;96163.25;;;28.48
49841;BMP280;35738;49.890;5.930;2023-08-17T10:21:50;96156.81;;;28.31
49841;BMP280;35738;49.890;5.930;2023-08-17T10:24:18;96152.69;;;29.37
49841;BMP280;35738;49.890;5.930;2023-08-17T10:26:45;96161.44;;;28.66
49841;BMP280;35738;49.890;5.930;2023-08-17T10:29:13;96148.22;;;28.11
49841;BMP280;35738;49.890;5.930;2023-08-17T10:31:46;96161.41;;;28.17
49841;BMP280;35738;49.890;5.930;2023-08-17T10:34:14;96162.31;;;28.31
49841;BMP280;35738;49.890;5.930;2023-08-17T10:36:41;96170.78;;;28.43
49841;BMP280;35738;49.890;5.930;2023-08-17T10:39:25;96168.63;;;28.87
49841;BMP280;35738;49.890;5.930;2023-08-17T10:41:56;96165.72;;;28.30
49841;BMP280;35738;49.890;5.930;2023-08-17T10:44:48;96159.81;;;28.47
49841;BMP280;35738;49.890;5.930;2023-08-17T10:49:44;96163.44;;;28.14
49841;BMP280;35738;49.890;5.930;2023-08-17T10:52:11;96163.75;;;28.36
49841;BMP280;35738;49.890;5.930;2023-08-17T10:54:38;96159.94;;;28.12
49841;BMP280;35738;49.890;5.930;2023-08-17T10:57:40;96159.19;;;29.06
49841;BMP280;35738;49.890;5.930;2023-08-17T11:00:35;96164.28;;;27.47
49841;BMP280;35738;49.890;5.930;2023-08-17T11:03:27;96160.69;;;29.15
49841;BMP280;35738;49.890;5.930;2023-08-17T11:43:55;96138.50;;;29.69
49841;BMP280;35738;49.890;5.930;2023-08-17T11:46:22;96133.06;;;29.81
49841;BMP280;35738;49.890;5.930;2023-08-17T12:23:52;96099.94;;;31.31
49841;BMP280;35738;49.890;5.930;2023-08-17T12:26:20;96088.56;;;30.39
49841;BMP280;35738;49.890;5.930;2023-08-17T12:28:47;96092.97;;;31.08
49841;BMP280;35738;49.890;5.930;2023-08-17T12:31:13;96091.13;;;30.09
49841;BMP280;35738;49.890;5.930;2023-08-17T12:33:40;96089.59;;;29.90
49841;BMP280;35738;49.890;5.930;2023-08-17T12:36:11;96093.56;;;28.97
49841;BMP280;35738;49.890;5.930;2023-08-17T12:38:37;96086.91;;;29.18
49841;BMP280;35738;49.890;5.930;2023-08-17T12:41:09;96095.19;;;29.96
49841;BMP280;35738;49.890;5.930;2023-08-17T12:43:37;96099.84;;;30.91
49841;BMP280;35738;49.890;5.930;2023-08-17T12:46:03;96090.59;;;30.30
49841;BMP280;35738;49.890;5.930;2023-08-17T12:48:30;96096.63;;;30.01
49841;BMP280;35738;49.890;5.930;2023-08-17T12:51:01;96095.75;;;31.08
49841;BMP280;35738;49.890;5.930;2023-08-17T12:53:30;96096.88;;;30.49
49841;BMP280;35738;49.890;5.930;2023-08-17T12:55:57;96092.47;;;29.24
49841;BMP280;35738;49.890;5.930;2023-08-17T12:58:24;96102.72;;;29.13
49841;BMP280;35738;49.890;5.930;2023-08-17T13:00:51;96095.34;;;29.36
49841;BMP280;35738;49.890;5.930;2023-08-17T13:03:20;96080.06;;;29.23
49841;BMP280;35738;49.890;5.930;2023-08-17T13:05:47;96080.06;;;30.09
49841;BMP280;35738;49.890;5.930;2023-08-17T13:08:14;96079.19;;;29.82
49841;BMP280;35738;49.890;5.930;2023-08-17T13:10:40;96073.53;;;30.90
49841;BMP280;35738;49.890;5.930;2023-08-17T13:13:07;96085.41;;;29.83
49841;BMP280;35738;49.890;5.930;2023-08-17T13:15:34;96078.91;;;30.44
49841;BMP280;35738;49.890;5.930;2023-08-17T13:18:00;96082.63;;;31.38
49841;BMP280;35738;49.890;5.930;2023-08-17T13:20:28;96078.31;;;30.71
49841;BMP280;35738;49.890;5.930;2023-08-17T13:22:54;96071.97;;;30.43
49841;BMP280;35738;49.890;5.930;2023-08-17T13:25:21;96067.38;;;29.76
49841;BMP280;35738;49.890;5.930;2023-08-17T13:27:47;96072.84;;;29.63
49841;BMP280;35738;49.890;5.930;2023-08-17T13:30:13;96067.94;;;30.64
49841;BMP280;35738;49.890;5.930;2023-08-17T13:32:40;96062.41;;;32.34
49841;BMP280;35738;49.890;5.930;2023-08-17T13:35:10;96065.22;;;32.20
49841;BMP280;35738;49.890;5.930;2023-08-17T13:37:37;96063.22;;;31.60
49841;BMP280;35738;49.890;5.930;2023-08-17T13:40:04;96067.81;;;30.42
49841;BMP280;35738;49.890;5.930;2023-08-17T13:42:31;96055.56;;;30.99
49841;BMP280;35738;49.890;5.930;2023-08-17T13:44:57;96057.66;;;32.07
49841;BMP280;35738;49.890;5.930;2023-08-17T13:47:24;96063.25;;;31.24
49841;BMP280;35738;49.890;5.930;2023-08-17T13:49:50;96052.13;;;31.02
49841;BMP280;35738;49.890;5.930;2023-08-17T13:52:17;96047.22;;;32.13
49841;BMP280;35738;49.890;5.930;2023-08-17T13:54:44;96054.94;;;31.38
49841;BMP280;35738;49.890;5.930;2023-08-17T13:57:11;96049.41;;;31.87
49841;BMP280;35738;49.890;5.930;2023-08-17T13:59:38;96045.94;;;31.24
49841;BMP280;35738;49.890;5.930;2023-08-17T14:02:04;96043.22;;;29.74
49841;BMP280;35738;49.890;5.930;2023-08-17T14:04:31;96044.41;;;30.69
49841;BMP280;35738;49.890;5.930;2023-08-17T14:06:58;96036.25;;;31.47
49841;BMP280;35738;49.890;5.930;2023-08-17T14:09:24;96035.47;;;32.09
49841;BMP280;35738;49.890;5.930;2023-08-17T14:11:51;96031.78;;;32.60
49841;BMP280;35738;49.890;5.930;2023-08-17T14:14:17;96038.09;;;32.49
49841;BMP280;35738;49.890;5.930;2023-08-17T14:16:45;96032.72;;;31.95
49841;BMP280;35738;49.890;5.930;2023-08-17T14:19:11;96032.63;;;30.54
49841;BMP280;35738;49.890;5.930;2023-08-17T14:21:38;96030.00;;;31.58
49841;BMP280;35738;49.890;5.930;2023-08-17T14:24:05;96025.84;;;31.05
49841;BMP280;35738;49.890;5.930;2023-08-17T14:26:33;96034.81;;;31.90
49841;BMP280;35738;49.890;5.930;2023-08-17T14:28:59;96023.03;;;30.85
49841;BMP280;35738;49.890;5.930;2023-08-17T14:31:26;96023.66;;;30.62
49841;BMP280;35738;49.890;5.930;2023-08-17T14:33:52;96026.50;;;30.86
49841;BMP280;35738;49.890;5.930;2023-08-17T14:36:19;96016.16;;;31.58
49841;BMP280;35738;49.890;5.930;2023-08-17T14:38:46;96011.91;;;30.71
49841;BMP280;35738;49.890;5.930;2023-08-17T14:41:13;96000.91;;;31.01
49841;BMP280;35738;49.890;5.930;2023-08-17T14:43:39;96000.22;;;31.09
49841;BMP280;35738;49.890;5.930;2023-08-17T14:46:06;96005.78;;;31.19
49841;BMP280;35738;49.890;5.930;2023-08-17T14:48:32;95997.47;;;31.41
49841;BMP280;35738;49.890;5.930;2023-08-17T14:50:59;96001.59;;;31.02
49841;BMP280;35738;49.890;5.930;2023-08-17T14:53:25;96000.94;;;31.13
49841;BMP280;35738;49.890;5.930;2023-08-17T14:55:52;96005.75;;;31.51
49841;BMP280;35738;49.890;5.930;2023-08-17T14:58:18;95996.72;;;30.88
49841;BMP280;35738;49.890;5.930;2023-08-17T15:00:45;95995.22;;;30.31
49841;BMP280;35738;49.890;5.930;2023-08-17T15:03:11;95997.25;;;30.33
49841;BMP280;35738;49.890;5.930;2023-08-17T15:05:38;95997.28;;;30.43
49841;BMP280;35738;49.890;5.930;2023-08-17T15:08:05;95993.25;;;30.76
49841;BMP280;35738;49.890;5.930;2023-08-17T15:10:32;95994.66;;;30.77
49841;BMP280;35738;49.890;5.930;2023-08-17T15:13:02;96002.19;;;30.62
49841;BMP280;35738;49.890;5.930;2023-08-17T15:15:28;95991.94;;;31.19
49841;BMP280;35738;49.890;5.930;2023-08-17T15:17:55;95994.69;;;30.97
49841;BMP280;35738;49.890;5.930;2023-08-17T15:20:21;95990.50;;;31.80
49841;BMP280;35738;49.890;5.930;2023-08-17T15:22:48;95988.47;;;31.00
49841;BMP280;35738;49.890;5.930;2023-08-17T15:25:14;95997.47;;;31.37
49841;BMP280;35738;49.890;5.930;2023-08-17T15:27:43;95991.22;;;30.86